Time;durP1;ratioP1;P1;durP2;ratioP2;P2;SDS_P1;SDS_P2;PMS_P1;PMS_P2;Temp;Humidity;BMP_temperature;BMP_pressure;BME280_temperature;BME280_humidity;BME280_pressure;Samples;Min_cycle;Max_cycle;Signal;HPM_P1;HPM_P2
2022/09/25 00:01:38;;;;;;;1.80;1.70;;;14.90;64.40;;;;;;5077798;28;20029;-79
2022/09/25 00:04:03;;;;;;;1.45;1.35;;;14.90;64.40;;;;;;5059528;28;20028;-79
2022/09/25 00:06:32;;;;;;;1.52;1.42;;;14.90;64.40;;;;;;5078261;28;20115;-79
2022/09/25 00:08:59;;;;;;;2.00;1.90;;;14.90;64.40;;;;;;5059824;28;20021;-80
2022/09/25 00:11:31;;;;;;;1.65;1.55;;;14.90;64.40;;;;;;5077968;28;20032;-81
2022/09/25 00:13:59;;;;;;;2.03;1.92;;;14.90;65.00;;;;;;5077489;28;20147;-80
2022/09/25 00:16:29;;;;;;;1.38;1.30;;;14.90;64.50;;;;;;5077203;28;20024;-81
2022/09/25 00:21:41;;;;;;;1.77;1.67;;;14.90;64.50;;;;;;5062352;28;20504;-80
2022/09/25 00:24:09;;;;;;;1.60;1.50;;;14.90;64.50;;;;;;5077224;28;20043;-79
2022/09/25 00:26:37;;;;;;;1.70;1.60;;;14.90;64.50;;;;;;5077441;28;20051;-80
2022/09/25 00:29:04;;;;;;;1.60;1.50;;;14.90;64.50;;;;;;5076922;28;20106;-80
2022/09/25 00:31:30;;;;;;;1.50;1.40;;;14.80;64.50;;;;;;5059339;28;20124;-81
2022/09/25 00:33:58;;;;;;;1.77;1.67;;;14.90;64.50;;;;;;5060206;28;20036;-80
2022/09/25 00:36:24;;;;;;;1.58;1.48;;;14.80;64.50;;;;;;5077088;28;20020;-80
2022/09/25 00:38:50;;;;;;;1.40;1.30;;;14.80;64.50;;;;;;5077075;28;20052;-80
2022/09/25 00:41:18;;;;;;;1.70;1.60;;;14.80;64.50;;;;;;5075519;28;20101;-80
2022/09/25 00:43:49;;;;;;;1.50;1.40;;;14.80;64.50;;;;;;5058578;28;20435;-80
2022/09/25 00:46:31;;;;;;;1.70;1.60;;;14.80;64.50;;;;;;5077011;28;20033;-80
2022/09/25 00:49:04;;;;;;;1.55;1.45;;;14.90;64.60;;;;;;5077054;28;20370;-80
2022/09/25 00:51:41;;;;;;;1.65;1.55;;;14.90;64.50;;;;;;5076741;28;20029;-80
2022/09/25 00:54:20;;;;;;;1.45;1.35;;;14.90;64.50;;;;;;5076729;28;20040;-80
2022/09/25 00:56:49;;;;;;;1.58;1.48;;;14.90;64.40;;;;;;5076364;28;20153;-81
2022/09/25 00:59:18;;;;;;;1.42;1.33;;;14.90;64.40;;;;;;5042504;28;20124;-79
2022/09/25 01:01:45;;;;;;;1.60;1.50;;;14.90;64.30;;;;;;5076437;28;20025;-81
2022/09/25 01:04:11;;;;;;;1.52;1.42;;;15.00;64.40;;;;;;5076499;28;20023;-80
2022/09/25 01:06:38;;;;;;;1.20;1.20;;;14.90;64.20;;;;;;5076435;28;20025;-80
2022/09/25 01:09:04;;;;;;;1.50;1.40;;;15.00;64.20;;;;;;5075074;28;20087;-80
2022/09/25 01:11:30;;;;;;;1.20;1.20;;;15.00;64.20;;;;;;5058679;28;20078;-80
2022/09/25 01:13:59;;;;;;;1.70;1.60;;;15.00;64.80;;;;;;5058209;28;20043;-80
2022/09/25 01:16:45;;;;;;;1.30;1.20;;;15.00;64.20;;;;;;5058342;28;20033;-80
2022/09/25 01:19:49;;;;;;;1.40;1.30;;;15.00;64.20;;;;;;5076061;28;20111;-80
2022/09/25 01:22:42;;;;;;;1.50;1.40;;;15.00;64.20;;;;;;5075222;28;20028;-80
2022/09/25 01:25:49;;;;;;;1.60;1.50;;;15.00;64.20;;;;;;5058359;28;20029;-81
2022/09/25 01:28:28;;;;;;;1.65;1.55;;;15.00;64.20;;;;;;5075724;28;20450;-80
2022/09/25 01:31:01;;;;;;;1.60;1.50;;;15.00;64.70;;;;;;5075905;28;20474;-81
2022/09/25 01:33:35;;;;;;;1.50;1.40;;;15.00;64.10;;;;;;5075900;28;20037;-81
2022/09/25 01:36:24;;;;;;;1.60;1.50;;;15.00;64.10;;;;;;5076248;28;20025;-80
2022/09/25 01:38:55;;;;;;;1.77;1.67;;;15.00;64.10;;;;;;5075208;28;20395;-80
2022/09/25 01:41:36;;;;;;;1.60;1.50;;;15.00;64.10;;;;;;5076209;28;20139;-80
2022/09/25 01:44:08;;;;;;;1.42;1.33;;;14.90;64.10;;;;;;5040953;28;20024;-80
2022/09/25 01:46:43;;;;;;;1.75;1.65;;;15.00;64.10;;;;;;5042072;28;20459;-81
2022/09/25 01:49:12;;;;;;;;;;;14.90;64.10;;;;;;5076504;28;20028;-80
2022/09/25 01:51:42;;;;;;;1.60;1.50;;;14.90;64.20;;;;;;5057831;28;19904;-80
2022/09/25 01:54:12;;;;;;;1.50;1.40;;;15.00;64.00;;;;;;5057683;28;20025;-78
2022/09/25 01:57:04;;;;;;;1.60;1.50;;;15.00;64.10;;;;;;5057371;28;20429;-80
2022/09/25 01:59:38;;;;;;;1.60;1.50;;;14.90;64.10;;;;;;5076087;28;20082;-79
2022/09/25 02:02:07;;;;;;;1.40;1.35;;;14.90;64.10;;;;;;5057720;28;20111;-81
2022/09/25 02:04:55;;;;;;;1.35;1.35;;;14.90;64.00;;;;;;5075503;28;20053;-80
2022/09/25 02:07:27;;;;;;;1.75;1.65;;;14.90;64.10;;;;;;5068467;28;20036;-80
2022/09/25 02:10:01;;;;;;;1.40;1.30;;;14.90;64.10;;;;;;5075964;28;20047;-80
2022/09/25 02:12:50;;;;;;;1.60;1.50;;;14.90;64.10;;;;;;5057575;28;20470;-80
2022/09/25 02:15:20;;;;;;;1.70;1.60;;;14.90;64.20;;;;;;5075185;28;20351;-80
2022/09/25 02:20:41;;;;;;;1.58;1.48;;;14.90;64.10;;;;;;5075125;28;20086;-80
2022/09/25 02:23:43;;;;;;;1.52;1.42;;;14.90;64.10;;;;;;5057136;28;20106;-78
2022/09/25 02:26:16;;;;;;;1.30;1.25;;;14.90;64.20;;;;;;5050390;28;20064;-80
2022/09/25 02:28:42;;;;;;;1.60;1.50;;;14.90;64.70;;;;;;5075204;28;20036;-81
2022/09/25 02:31:11;;;;;;;1.80;1.70;;;14.80;64.10;;;;;;5056948;28;20056;-80
2022/09/25 02:33:37;;;;;;;1.20;1.20;;;14.80;64.10;;;;;;5075225;28;20035;-80
2022/09/25 02:36:04;;;;;;;1.60;1.50;;;14.90;64.10;;;;;;5057190;28;20111;-80
2022/09/25 02:38:32;;;;;;;1.60;1.50;;;14.90;64.10;;;;;;5074789;28;20447;-80
2022/09/25 02:41:16;;;;;;;1.50;1.40;;;14.80;64.10;;;;;;5074791;28;20028;-80
2022/09/25 02:44:02;;;;;;;1.87;1.77;;;14.90;64.20;;;;;;5056824;28;20025;-80
2022/09/25 02:46:58;;;;;;;1.35;1.35;;;14.90;64.20;;;;;;5074693;28;20276;-81
2022/09/25 02:49:28;;;;;;;1.95;1.50;;;14.80;64.10;;;;;;5056523;28;20036;-80
2022/09/25 02:52:03;;;;;;;1.50;1.40;;;14.80;64.10;;;;;;5075130;28;20031;-81
2022/09/25 02:54:52;;;;;;;1.60;1.50;;;14.80;64.10;;;;;;5057739;28;20036;-81
2022/09/25 02:57:27;;;;;;;1.35;1.25;;;14.80;64.10;;;;;;5074217;28;20082;-79
2022/09/25 03:00:00;;;;;;;1.35;1.35;;;14.80;64.20;;;;;;5075018;28;20038;-79
2022/09/25 03:02:27;;;;;;;1.50;1.40;;;14.80;64.20;;;;;;5074658;28;20548;-80
2022/09/25 03:04:55;;;;;;;1.50;1.40;;;14.80;64.20;;;;;;5074447;28;20036;-80
2022/09/25 03:07:21;;;;;;;1.48;1.38;;;14.80;64.20;;;;;;5074206;28;20031;-79
2022/09/25 03:09:48;;;;;;;1.70;1.60;;;14.80;64.20;;;;;;5074507;28;20029;-80
2022/09/25 03:12:14;;;;;;;1.50;1.40;;;14.80;64.20;;;;;;5074315;28;20111;-79
2022/09/25 03:14:40;;;;;;;1.58;1.48;;;14.80;64.20;;;;;;5056742;28;20103;-80
2022/09/25 03:17:08;;;;;;;1.20;1.20;;;14.80;64.20;;;;;;5073983;28;20024;-80
2022/09/25 03:19:35;;;;;;;1.30;1.30;;;14.80;64.20;;;;;;5073813;28;20044;-80
2022/09/25 03:22:01;;;;;;;1.20;1.20;;;14.80;64.20;;;;;;5073704;28;20035;-80
2022/09/25 03:24:27;;;;;;;1.45;1.35;;;14.80;64.20;;;;;;5055995;28;20055;-80
2022/09/25 03:26:53;;;;;;;1.27;1.27;;;14.80;64.20;;;;;;5073995;28;20071;-80
2022/09/25 03:29:19;;;;;;;1.60;1.50;;;14.80;64.20;;;;;;5073738;28;20032;-80
2022/09/25 03:31:45;;;;;;;1.48;1.38;;;14.70;64.20;;;;;;5073513;28;20173;-81
2022/09/25 03:34:13;;;;;;;1.30;1.30;;;14.70;64.20;;;;;;5073713;28;20028;-79
2022/09/25 03:36:39;;;;;;;1.30;1.30;;;14.70;64.20;;;;;;5055920;28;20074;-79
2022/09/25 03:39:05;;;;;;;1.52;1.42;;;14.80;64.20;;;;;;5073879;28;20043;-80
2022/09/25 03:41:33;;;;;;;1.67;1.58;;;14.70;64.20;;;;;;5073986;28;20024;-80
2022/09/25 03:44:00;;;;;;;1.50;1.40;;;14.70;64.20;;;;;;5073641;28;20082;-81
2022/09/25 03:46:31;;;;;;;1.60;1.50;;;14.70;64.20;;;;;;5056114;28;20028;-79
2022/09/25 03:48:57;;;;;;;1.70;1.60;;;14.70;64.20;;;;;;5073871;28;20476;-80
2022/09/25 03:51:25;;;;;;;1.55;1.45;;;14.70;64.20;;;;;;5073814;28;20039;-80
2022/09/25 03:53:52;;;;;;;1.33;1.33;;;14.70;64.20;;;;;;5073752;28;20024;-80
2022/09/25 03:56:20;;;;;;;1.70;1.60;;;14.70;64.20;;;;;;5055589;28;20032;-80
2022/09/25 03:58:47;;;;;;;1.42;1.33;;;14.70;64.30;;;;;;5073730;28;20044;-81
2022/09/25 04:01:13;;;;;;;1.40;1.30;;;14.70;64.20;;;;;;5073842;28;20028;-80
2022/09/25 04:03:39;;;;;;;1.52;1.42;;;14.70;64.20;;;;;;5073339;28;20024;-81
2022/09/25 04:06:07;;;;;;;1.33;1.33;;;14.70;64.20;;;;;;5073768;28;20031;-80
2022/09/25 04:08:34;;;;;;;1.55;1.45;;;14.70;64.20;;;;;;5055644;28;20470;-81
2022/09/25 04:11:02;;;;;;;1.50;1.40;;;14.80;64.20;;;;;;5072268;28;20029;-79
2022/09/25 04:13:30;;;;;;;1.17;1.17;;;14.80;64.20;;;;;;5073366;28;20025;-80
2022/09/25 04:15:58;;;;;;;1.33;1.30;;;14.80;64.20;;;;;;5073387;28;20378;-80
2022/09/25 04:18:27;;;;;;;1.40;1.30;;;14.80;64.20;;;;;;5054989;28;20098;-80
2022/09/25 04:20:52;;;;;;;1.40;1.30;;;14.80;64.20;;;;;;5056267;28;20024;-80
2022/09/25 04:23:18;;;;;;;1.70;1.60;;;14.80;64.20;;;;;;5073301;28;20025;-80
2022/09/25 04:25:44;;;;;;;1.58;1.48;;;14.80;64.10;;;;;;5073386;28;20055;-76
2022/09/25 04:28:10;;;;;;;1.33;1.23;;;14.80;64.10;;;;;;5073511;28;20040;-80
2022/09/25 04:30:36;;;;;;;1.50;1.40;;;14.80;64.10;;;;;;5073211;28;20036;-80
2022/09/25 04:35:46;;;;;;;1.30;1.30;;;14.80;64.10;;;;;;5073746;28;20385;-79
2022/09/25 04:38:12;;;;;;;1.35;1.27;;;14.90;64.10;;;;;;5073091;28;20277;-80
2022/09/25 04:40:37;;;;;;;1.27;1.23;;;14.90;64.10;;;;;;5073470;28;20055;-80
2022/09/25 04:43:05;;;;;;;1.40;1.30;;;14.90;64.00;;;;;;5073800;28;20367;-80
2022/09/25 04:45:33;;;;;;;1.40;1.30;;;14.90;64.00;;;;;;5076959;28;20486;-80
2022/09/25 04:48:00;;;;;;;1.50;1.40;;;14.90;64.00;;;;;;5059375;28;20029;-80
2022/09/25 04:50:30;;;;;;;1.50;1.40;;;14.90;64.00;;;;;;5058747;28;20440;-80
2022/09/25 04:52:56;;;;;;;1.50;1.40;;;14.90;63.90;;;;;;5076584;28;20028;-80
2022/09/25 04:55:23;;;;;;;1.70;1.60;;;14.90;63.90;;;;;;5076448;28;20039;-80
2022/09/25 04:57:52;;;;;;;1.50;1.40;;;14.90;63.90;;;;;;5076635;28;20064;-80
2022/09/25 05:00:19;;;;;;;1.40;1.30;;;15.00;63.90;;;;;;5077157;28;20409;-79
2022/09/25 05:02:45;;;;;;;1.70;1.60;;;15.00;63.90;;;;;;5076576;28;20078;-77
2022/09/25 05:05:11;;;;;;;1.50;1.40;;;15.00;63.80;;;;;;5076969;28;20402;-80
2022/09/25 05:07:38;;;;;;;1.58;1.48;;;15.00;63.80;;;;;;5076475;28;20036;-80
2022/09/25 05:10:06;;;;;;;1.42;1.33;;;15.00;63.80;;;;;;5076497;28;20033;-81
2022/09/25 05:12:32;;;;;;;1.33;1.25;;;15.00;63.80;;;;;;5076328;28;20029;-81
2022/09/25 05:14:58;;;;;;;1.40;1.30;;;15.10;63.80;;;;;;5076663;28;20051;-81
2022/09/25 05:17:23;;;;;;;1.25;1.25;;;15.10;63.80;;;;;;5076190;28;20422;-79
2022/09/25 05:19:49;;;;;;;1.10;1.10;;;15.10;63.80;;;;;;5076091;28;20035;-80
2022/09/25 05:22:15;;;;;;;1.55;1.45;;;15.10;63.70;;;;;;5058641;28;20402;-79
2022/09/25 05:24:40;;;;;;;1.55;1.45;;;15.10;63.70;;;;;;5077097;28;20355;-82
2022/09/25 05:27:06;;;;;;;1.42;1.33;;;15.10;63.70;;;;;;5096209;28;20474;-79
2022/09/25 05:29:32;;;;;;;1.40;1.30;;;15.10;63.70;;;;;;5096585;28;20557;-81
2022/09/25 05:31:58;;;;;;;1.52;1.42;;;15.20;63.70;;;;;;5096595;28;20077;-79
2022/09/25 05:34:24;;;;;;;1.50;1.40;;;15.20;63.60;;;;;;5096586;28;20027;-79
2022/09/25 05:36:49;;;;;;;1.50;1.40;;;15.20;63.60;;;;;;5096086;28;20107;-79
2022/09/25 05:39:15;;;;;;;1.23;1.20;;;15.20;63.50;;;;;;5096240;28;20036;-79
2022/09/25 05:41:41;;;;;;;1.60;1.50;;;15.20;63.50;;;;;;5095779;28;20508;-77
2022/09/25 05:44:08;;;;;;;1.80;1.70;;;15.20;63.50;;;;;;5095984;28;20056;-80
2022/09/25 05:46:37;;;;;;;1.60;1.50;;;15.30;63.50;;;;;;5095817;28;20032;-80
2022/09/25 05:49:03;;;;;;;1.40;1.30;;;15.30;63.50;;;;;;5095954;28;20032;-80
2022/09/25 05:51:29;;;;;;;1.55;1.45;;;15.30;63.40;;;;;;5095944;28;20094;-81
2022/09/25 05:53:55;;;;;;;1.50;1.40;;;15.30;63.40;;;;;;5095389;28;20032;-81
2022/09/25 05:56:23;;;;;;;1.38;1.35;;;15.30;63.40;;;;;;5095201;28;20460;-79
2022/09/25 05:58:49;;;;;;;1.60;1.50;;;15.30;63.40;;;;;;5077800;28;20154;-82
2022/09/25 06:01:14;;;;;;;1.40;1.30;;;15.30;63.30;;;;;;5095750;28;20033;-82
2022/09/25 06:03:40;;;;;;;1.48;1.38;;;15.30;63.30;;;;;;5077340;28;20051;-80
2022/09/25 06:06:06;;;;;;;1.90;1.20;;;15.40;63.30;;;;;;5095707;28;20039;-81
2022/09/25 06:08:34;;;;;;;1.40;1.30;;;15.40;63.30;;;;;;5095450;28;20028;-81
2022/09/25 06:11:01;;;;;;;1.55;1.45;;;15.40;63.90;;;;;;5061003;28;20030;-81
2022/09/25 06:13:28;;;;;;;1.38;1.27;;;15.40;63.20;;;;;;5094962;28;20035;-80
2022/09/25 06:15:55;;;;;;;1.10;1.10;;;15.40;63.20;;;;;;5094140;28;20016;-82
2022/09/25 06:18:23;;;;;;;1.95;1.65;;;15.50;63.20;;;;;;5094332;28;20058;-82
2022/09/25 06:20:50;;;;;;;2.08;1.88;;;15.50;63.10;;;;;;5094639;28;20056;-80
2022/09/25 06:23:16;;;;;;;3.25;1.80;;;15.50;62.50;;;;;;5076312;28;20470;-77
2022/09/25 06:25:42;;;;;;;2.20;2.00;;;15.40;62.30;;;;;;5095869;28;20028;-80
2022/09/25 06:28:10;;;;;;;2.20;2.00;;;15.30;62.00;;;;;;5094181;28;20028;-81
2022/09/25 06:30:37;;;;;;;2.33;2.00;;;15.20;62.00;;;;;;5093644;28;20060;-79
2022/09/25 06:33:11;;;;;;;2.25;1.90;;;15.10;61.80;;;;;;5093569;28;20028;-81
2022/09/25 06:35:41;;;;;;;;;;;15.00;61.90;;;;;;5077229;28;20486;-81
2022/09/25 06:38:07;;;;;;;2.30;2.10;;;14.80;61.90;;;;;;5090775;28;19919;-78
2022/09/25 06:40:33;;;;;;;2.10;1.90;;;14.80;61.90;;;;;;5075214;28;20032;-81
2022/09/25 06:43:03;;;;;;;2.15;1.95;;;14.70;62.10;;;;;;5093774;28;20031;-79
2022/09/25 06:45:32;;;;;;;2.45;2.20;;;14.60;62.00;;;;;;5086725;28;20051;-78
2022/09/25 06:48:05;;;;;;;2.40;1.95;;;14.60;62.00;;;;;;5093823;28;20070;-79
2022/09/25 06:50:55;;;;;;;2.60;2.40;;;14.50;61.90;;;;;;5093744;28;20032;-78
2022/09/25 06:53:23;;;;;;;1.85;1.75;;;14.50;61.70;;;;;;5090710;28;20427;-78
2022/09/25 06:55:49;;;;;;;2.08;1.85;;;14.50;61.90;;;;;;5093150;28;20462;-77
2022/09/25 06:58:20;;;;;;;2.13;1.92;;;14.40;62.00;;;;;;5092053;28;20175;-78
2022/09/25 07:00:48;;;;;;;2.20;2.00;;;14.40;62.00;;;;;;5092597;28;20104;-76
2022/09/25 07:06:03;;;;;;;2.35;2.15;;;14.40;62.10;;;;;;5093527;28;20073;-79
2022/09/25 07:08:29;;;;;;;2.20;2.00;;;14.40;62.10;;;;;;5093468;28;20038;-79
2022/09/25 07:10:56;;;;;;;1.95;1.80;;;14.40;62.00;;;;;;5093394;28;20495;-78
2022/09/25 07:13:24;;;;;;;2.13;1.80;;;14.40;61.80;;;;;;5093904;28;20047;-79
2022/09/25 07:15:58;;;;;;;3.28;2.15;;;14.40;61.80;;;;;;5094170;28;20111;-79
2022/09/25 07:18:25;;;;;;;2.50;2.03;;;14.40;61.70;;;;;;5093315;28;20024;-79
2022/09/25 07:20:52;;;;;;;2.40;2.20;;;14.40;62.30;;;;;;5094259;28;20086;-79
2022/09/25 07:23:19;;;;;;;2.38;2.17;;;14.40;61.80;;;;;;5094639;28;20031;-78
2022/09/25 07:25:46;;;;;;;2.60;2.15;;;14.40;61.40;;;;;;5092658;28;20592;-78
2022/09/25 07:28:14;;;;;;;1.95;1.80;;;14.40;61.30;;;;;;5094134;28;20040;-79
2022/09/25 07:30:41;;;;;;;2.05;1.85;;;14.40;61.40;;;;;;5092752;28;20032;-78
2022/09/25 07:33:07;;;;;;;2.20;2.00;;;14.40;61.40;;;;;;5093820;28;20019;-79
2022/09/25 07:35:34;;;;;;;2.13;1.88;;;14.40;61.40;;;;;;5094320;28;20035;-78
2022/09/25 07:37:59;;;;;;;2.10;1.88;;;14.40;61.40;;;;;;5092675;28;20056;-78
2022/09/25 07:40:27;;;;;;;4.40;1.88;;;14.40;61.40;;;;;;5093806;28;20059;-79
2022/09/25 07:43:00;;;;;;;2.55;2.35;;;14.50;61.40;;;;;;5093965;28;20024;-81
2022/09/25 07:45:26;;;;;;;2.13;1.92;;;14.50;61.10;;;;;;5093818;28;20456;-78
2022/09/25 07:48:00;;;;;;;3.15;1.98;;;14.50;61.00;;;;;;5093803;28;20355;-78
2022/09/25 07:50:30;;;;;;;2.95;2.40;;;14.50;61.10;;;;;;5075893;28;20028;-82
2022/09/25 07:52:56;;;;;;;1.70;1.60;;;14.50;61.10;;;;;;5075365;28;20028;-79
2022/09/25 07:55:22;;;;;;;1.70;1.60;;;14.60;61.10;;;;;;5093842;28;20106;-78
2022/09/25 07:57:49;;;;;;;2.33;1.90;;;14.60;61.10;;;;;;5093893;28;20351;-80
2022/09/25 08:00:16;;;;;;;2.08;1.85;;;14.70;60.80;;;;;;5075555;28;20028;-79
2022/09/25 08:02:42;;;;;;;2.17;1.92;;;14.70;60.80;;;;;;5093770;28;20504;-79
2022/09/25 08:05:08;;;;;;;2.50;1.95;;;14.70;60.80;;;;;;5093443;28;20024;-79
2022/09/25 08:07:34;;;;;;;1.83;1.73;;;14.70;60.60;;;;;;5093317;28;20100;-78
2022/09/25 08:10:00;;;;;;;2.22;2.03;;;14.70;60.70;;;;;;5093421;28;20103;-77
2022/09/25 08:12:26;;;;;;;2.28;2.08;;;14.70;60.80;;;;;;5075759;28;20032;-78
2022/09/25 08:14:52;;;;;;;2.45;2.20;;;14.80;60.50;;;;;;5093768;28;20028;-79
2022/09/25 08:17:18;;;;;;;2.47;2.22;;;14.80;60.30;;;;;;5093363;28;20085;-78
2022/09/25 08:19:44;;;;;;;2.95;2.40;;;14.80;60.30;;;;;;5096841;28;20029;-79
2022/09/25 08:22:19;;;;;;;2.25;2.05;;;14.80;60.20;;;;;;5097305;28;20032;-78
2022/09/25 08:24:44;;;;;;;2.35;2.10;;;14.80;60.40;;;;;;5097495;28;20028;-75
2022/09/25 08:27:10;;;;;;;3.40;2.10;;;14.80;60.50;;;;;;5097291;28;20493;-79
2022/09/25 08:29:35;;;;;;;2.05;1.90;;;14.80;60.30;;;;;;5079045;28;20036;-78
2022/09/25 08:32:01;;;;;;;2.17;1.98;;;14.90;60.40;;;;;;5097340;28;20024;-79
2022/09/25 08:34:27;;;;;;;4.55;1.83;;;14.90;60.20;;;;;;5078962;28;20039;-78
2022/09/25 08:36:53;;;;;;;2.30;2.10;;;14.90;60.10;;;;;;5079824;28;20020;-78
2022/09/25 08:39:18;;;;;;;3.65;2.38;;;15.00;59.90;;;;;;5097030;28;20060;-78
2022/09/25 08:41:50;;;;;;;2.13;2.00;;;15.00;59.60;;;;;;5097061;28;20024;-79
2022/09/25 08:44:27;;;;;;;2.63;2.40;;;15.00;59.80;;;;;;5097093;28;20149;-79
2022/09/25 08:50:15;;;;;;;2.42;2.13;;;15.10;59.40;;;;;;5096954;28;20039;-79
2022/09/25 08:52:46;;;;;;;2.50;2.30;;;15.20;59.20;;;;;;5078925;28;20031;-78
2022/09/25 08:58:27;;;;;;;2.20;2.00;;;15.30;58.70;;;;;;5097054;28;20066;-78
2022/09/25 09:00:58;;;;;;;2.22;2.03;;;15.30;58.80;;;;;;5096932;28;20404;-78
2022/09/25 09:03:25;;;;;;;2.50;2.20;;;15.30;58.90;;;;;;5096643;28;20461;-84
2022/09/25 09:06:09;;;;;;;2.10;1.90;;;15.40;58.80;;;;;;5096572;28;20031;-77
2022/09/25 09:08:37;;;;;;;2.30;2.00;;;15.40;57.90;;;;;;5078546;28;20028;-79
2022/09/25 09:11:07;;;;;;;2.30;2.10;;;15.40;58.00;;;;;;5096572;28;20078;-78
2022/09/25 09:13:51;;;;;;;2.72;2.20;;;15.40;57.90;;;;;;5096463;28;20023;-78
2022/09/25 09:16:41;;;;;;;2.33;2.13;;;15.40;57.40;;;;;;5096608;28;20099;-77
2022/09/25 09:19:09;;;;;;;2.60;2.22;;;15.40;57.90;;;;;;5096410;28;20044;-78
2022/09/25 09:21:35;;;;;;;2.45;2.00;;;15.40;57.70;;;;;;5096054;28;20028;-78
2022/09/25 09:24:07;;;;;;;2.13;1.80;;;15.50;57.90;;;;;;5096375;28;20036;-79
2022/09/25 09:26:46;;;;;;;2.22;2.03;;;15.50;57.90;;;;;;5095945;28;20020;-79
2022/09/25 09:29:27;;;;;;;2.08;1.88;;;15.50;57.90;;;;;;5078082;28;20123;-79
2022/09/25 09:32:11;;;;;;;3.35;2.00;;;15.60;58.00;;;;;;5077906;28;20050;-79
2022/09/25 09:34:46;;;;;;;2.63;2.10;;;15.70;57.30;;;;;;5096258;28;20494;-82
2022/09/25 09:37:41;;;;;;;2.90;1.80;;;15.70;56.90;;;;;;5095766;28;20351;-80
2022/09/25 09:40:35;;;;;;;1.80;1.70;;;15.80;56.70;;;;;;5096169;28;20055;-78
2022/09/25 09:43:30;;;;;;;3.15;1.85;;;15.90;56.80;;;;;;5077986;28;20031;-77
2022/09/25 09:46:17;;;;;;;2.10;1.90;;;15.90;56.30;;;;;;5093465;28;20052;-79
2022/09/25 09:49:16;;;;;;;1.85;1.75;;;16.00;56.20;;;;;;5096211;28;20036;-81
2022/09/25 09:51:52;;;;;;;2.10;1.90;;;16.10;56.20;;;;;;5096069;28;20466;-78
2022/09/25 09:54:34;;;;;;;1.83;1.73;;;16.20;56.20;;;;;;5095913;28;20028;-78
2022/09/25 09:57:10;;;;;;;2.10;1.90;;;16.20;56.00;;;;;;5096149;28;20051;-79
2022/09/25 09:59:46;;;;;;;1.70;1.60;;;16.30;55.50;;;;;;5095963;28;20059;-78
2022/09/25 10:02:37;;;;;;;1.98;1.77;;;16.40;55.00;;;;;;5095613;28;20066;-78
2022/09/25 10:05:08;;;;;;;1.80;1.70;;;16.40;55.20;;;;;;5083056;28;20139;-79
2022/09/25 10:07:37;;;;;;;1.98;1.75;;;16.50;55.30;;;;;;5094207;28;20035;-78
2022/09/25 10:10:14;;;;;;;1.90;1.80;;;16.50;55.30;;;;;;5095335;28;20074;-79
2022/09/25 10:12:45;;;;;;;1.60;1.50;;;16.50;55.00;;;;;;5094210;28;20073;-79
2022/09/25 10:15:56;;;;;;;1.80;1.70;;;16.60;55.10;;;;;;5095699;28;20024;-79
2022/09/25 10:18:26;;;;;;;1.48;1.38;;;16.60;55.00;;;;;;5094156;28;20111;-78
2022/09/25 10:21:04;;;;;;;1.58;1.48;;;16.70;55.40;;;;;;5095382;28;20028;-78
2022/09/25 10:23:49;;;;;;;1.60;1.50;;;16.70;55.10;;;;;;5094619;28;20032;-78
2022/09/25 10:26:37;;;;;;;1.70;1.60;;;16.70;54.90;;;;;;5095238;28;20355;-79
2022/09/25 10:29:06;;;;;;;1.48;1.40;;;16.70;55.00;;;;;;5095047;28;20028;-79
2022/09/25 10:31:37;;;;;;;1.50;1.40;;;16.70;55.20;;;;;;5095268;28;20102;-78
2022/09/25 10:34:11;;;;;;;1.50;1.40;;;16.70;55.10;;;;;;5095255;28;20020;-78
2022/09/25 10:36:44;;;;;;;1.58;1.48;;;16.80;55.10;;;;;;5093708;28;20492;-78
2022/09/25 10:39:32;;;;;;;2.00;1.60;;;16.80;55.00;;;;;;5093751;28;20039;-77
2022/09/25 10:41:59;;;;;;;1.70;1.60;;;16.80;54.70;;;;;;5093909;28;20377;-79
2022/09/25 10:44:34;;;;;;;1.73;1.63;;;16.80;55.00;;;;;;5093433;28;20161;-78
2022/09/25 10:50:25;;;;;;;1.52;1.42;;;16.90;54.30;;;;;;5094550;28;19960;-84
2022/09/25 10:53:03;;;;;;;1.60;1.50;;;17.00;53.80;;;;;;5086675;28;20382;-79
2022/09/25 10:55:32;;;;;;;1.60;1.50;;;17.10;54.30;;;;;;5094743;28;20132;-78
2022/09/25 10:58:22;;;;;;;1.92;1.83;;;17.20;54.20;;;;;;5098612;28;20104;-78
2022/09/25 11:00:54;;;;;;;1.85;1.75;;;17.30;53.50;;;;;;5095104;28;20051;-79
2022/09/25 11:03:31;;;;;;;2.03;1.83;;;17.30;53.30;;;;;;5094463;28;20102;-77
2022/09/25 11:06:03;;;;;;;1.98;1.77;;;17.30;53.30;;;;;;5093163;28;20117;-78
2022/09/25 11:08:33;;;;;;;1.80;1.70;;;17.30;53.00;;;;;;5092932;28;20166;-80
2022/09/25 11:11:01;;;;;;;1.70;1.60;;;17.30;53.30;;;;;;5092952;28;20458;-79
2022/09/25 11:13:47;;;;;;;1.60;1.50;;;17.30;53.50;;;;;;5094669;28;20024;-80
2022/09/25 11:16:14;;;;;;;1.58;1.48;;;17.30;53.40;;;;;;5094343;28;20458;-78
2022/09/25 11:18:47;;;;;;;1.70;1.60;;;17.30;54.20;;;;;;5092850;28;20035;-78
2022/09/25 11:21:19;;;;;;;2.35;1.77;;;17.30;53.60;;;;;;5093996;28;20028;-80
2022/09/25 11:23:57;;;;;;;1.80;1.70;;;17.40;53.50;;;;;;5092923;28;20028;-80
2022/09/25 11:26:39;;;;;;;1.67;1.58;;;17.40;53.50;;;;;;5093048;28;20035;-79
2022/09/25 11:29:16;;;;;;;1.35;1.27;;;17.50;53.60;;;;;;5092782;28;20382;-80
2022/09/25 11:31:49;;;;;;;1.88;1.60;;;17.60;53.60;;;;;;5094033;28;20025;-75
2022/09/25 11:34:26;;;;;;;1.77;1.67;;;17.70;53.40;;;;;;5093934;28;20024;-79
2022/09/25 11:36:59;;;;;;;1.50;1.40;;;17.80;52.90;;;;;;5093978;28;20043;-78
2022/09/25 11:42:43;;;;;;;2.72;1.70;;;17.90;52.80;;;;;;5093019;28;20043;-79
2022/09/25 11:45:21;;;;;;;2.22;1.65;;;17.90;52.60;;;;;;5093872;28;20040;-78
2022/09/25 11:48:04;;;;;;;1.80;1.70;;;17.80;52.40;;;;;;5093984;28;20032;-79
2022/09/25 11:50:49;;;;;;;1.85;1.60;;;17.80;51.90;;;;;;5075364;28;20040;-79
2022/09/25 11:53:24;;;;;;;1.90;1.70;;;17.80;52.30;;;;;;5093288;28;20028;-79
2022/09/25 11:56:09;;;;;;;1.52;1.42;;;17.80;52.20;;;;;;5093867;28;20458;-77
2022/09/25 11:59:04;;;;;;;2.45;1.40;;;17.80;51.60;;;;;;5093854;28;20070;-79
2022/09/25 12:01:51;;;;;;;2.05;1.80;;;17.80;52.30;;;;;;5075707;28;20028;-78
2022/09/25 12:04:33;;;;;;;1.60;1.50;;;17.90;52.20;;;;;;5093920;28;20024;-80
2022/09/25 12:07:22;;;;;;;1.67;1.52;;;17.90;52.10;;;;;;5093722;28;20032;-79
2022/09/25 12:10:16;;;;;;;1.65;1.55;;;17.90;52.20;;;;;;5055433;28;20036;-78
2022/09/25 12:12:58;;;;;;;1.73;1.38;;;18.00;52.20;;;;;;5093504;28;20077;-78
2022/09/25 12:15:48;;;;;;;1.35;1.25;;;18.00;52.40;;;;;;5093490;28;20077;-79
2022/09/25 12:18:31;;;;;;;2.00;1.65;;;18.00;52.20;;;;;;5093746;28;20064;-78
2022/09/25 12:21:19;;;;;;;1.50;1.40;;;18.00;52.10;;;;;;5093528;28;20081;-77
2022/09/25 12:24:25;;;;;;;1.60;1.50;;;17.90;52.00;;;;;;5092739;28;20036;-78
2022/09/25 12:27:13;;;;;;;1.50;1.40;;;17.90;52.10;;;;;;5011114;28;20026;-79
2022/09/25 12:29:54;;;;;;;1.90;1.70;;;18.00;52.30;;;;;;5091504;28;20067;-83
2022/09/25 12:32:25;;;;;;;1.33;1.30;;;18.00;52.20;;;;;;5093372;28;20073;-78
2022/09/25 12:35:30;;;;;;;1.83;1.73;;;18.00;51.90;;;;;;5093557;28;20477;-78
2022/09/25 12:38:04;;;;;;;1.60;1.50;;;18.00;51.70;;;;;;5093370;28;20093;-80
2022/09/25 12:40:43;;;;;;;1.92;1.83;;;18.00;51.80;;;;;;5075494;28;20035;-79
2022/09/25 12:43:14;;;;;;;1.63;1.52;;;17.90;51.90;;;;;;5075608;28;20050;-78
2022/09/25 12:45:59;;;;;;;1.63;1.40;;;17.90;52.00;;;;;;5087889;28;20467;-79
2022/09/25 12:48:33;;;;;;;1.40;1.30;;;17.90;52.00;;;;;;5093161;28;20036;-84
2022/09/25 12:51:21;;;;;;;1.45;1.35;;;17.90;52.10;;;;;;5096939;28;20493;-78
2022/09/25 12:54:05;;;;;;;1.55;1.45;;;17.80;52.10;;;;;;5095187;28;20381;-78
2022/09/25 12:57:06;;;;;;;1.58;1.48;;;17.80;52.20;;;;;;5092936;28;20111;-78
2022/09/25 12:59:41;;;;;;;1.60;1.50;;;17.80;52.10;;;;;;5092979;28;20050;-79
2022/09/25 13:02:44;;;;;;;1.60;1.50;;;17.80;52.40;;;;;;5093417;28;20040;-78
2022/09/25 13:05:14;;;;;;;2.30;1.80;;;17.80;52.70;;;;;;5092710;28;20442;-79
2022/09/25 13:07:50;;;;;;;1.42;1.30;;;17.90;52.30;;;;;;5096949;28;20063;-78
2022/09/25 13:10:22;;;;;;;1.70;1.60;;;17.90;52.30;;;;;;5095563;28;20081;-79
2022/09/25 13:12:50;;;;;;;1.65;1.55;;;18.00;52.30;;;;;;5095398;28;20054;-78
2022/09/25 13:15:31;;;;;;;1.65;1.55;;;18.00;52.30;;;;;;5095441;28;20028;-78
2022/09/25 13:17:57;;;;;;;1.90;1.70;;;18.10;52.10;;;;;;5095419;28;20461;-78
2022/09/25 13:20:30;;;;;;;1.65;1.55;;;18.10;52.20;;;;;;5096512;28;20436;-75
2022/09/25 13:23:09;;;;;;;1.80;1.70;;;18.10;52.20;;;;;;5096831;28;20078;-79
2022/09/25 13:25:45;;;;;;;2.78;1.60;;;18.10;51.90;;;;;;5096306;28;20059;-79
2022/09/25 13:28:19;;;;;;;1.70;1.60;;;18.10;52.00;;;;;;5095181;28;20555;-79
2022/09/25 13:31:07;;;;;;;1.50;1.40;;;18.20;52.20;;;;;;5095514;28;20397;-79
2022/09/25 13:33:43;;;;;;;1.67;1.58;;;18.30;52.00;;;;;;5095592;28;20050;-78
2022/09/25 13:36:45;;;;;;;2.38;1.80;;;18.40;51.90;;;;;;5095909;28;20025;-79
2022/09/25 13:42:21;;;;;;;2.17;1.88;;;18.70;51.80;;;;;;5096252;28;20393;-79
2022/09/25 13:45:07;;;;;;;2.10;1.90;;;18.90;51.40;;;;;;5096294;28;20431;-80